Time;durP1;ratioP1;P1;durP2;ratioP2;P2;SDS_P1;SDS_P2;PMS_P1;PMS_P2;Temp;Humidity;BMP_temperature;BMP_pressure;BME280_temperature;BME280_humidity;BME280_pressure;Samples;Min_cycle;Max_cycle;Signal;HPM_P1;HPM_P2
2024/01/14 00:01:45;;;;;;;40.90;23.43;;;;;;;;;;5054030;28;20394;-54
2024/01/14 00:04:11;;;;;;;36.70;24.03;;;;;;;;;;5054803;28;20021;-55
2024/01/14 00:06:37;;;;;;;33.93;22.63;;;;;;;;;;5054750;28;20028;-53
2024/01/14 00:09:03;;;;;;;36.83;25.53;;;;;;;;;;5053931;28;20032;-51
2024/01/14 00:11:29;;;;;;;40.77;24.43;;;;;;;;;;5054094;28;20110;-52
2024/01/14 00:13:55;;;;;;;34.30;22.43;;;;;;;;;;5054056;28;20475;-52
2024/01/14 00:16:21;;;;;;;32.97;21.53;;;;;;;;;;5054023;28;20082;-52
2024/01/14 00:18:47;;;;;;;37.90;21.80;;;;;;;;;;5053956;28;20489;-50
2024/01/14 00:21:13;;;;;;;43.67;24.90;;;;;;;;;;5054005;28;20482;-55
2024/01/14 00:23:39;;;;;;;28.70;19.20;;;;;;;;;;5054432;28;20031;-52
2024/01/14 00:26:05;;;;;;;36.93;22.27;;;;;;;;;;5053877;28;20025;-50
2024/01/14 00:28:31;;;;;;;35.57;22.10;;;;;;;;;;5054194;28;20071;-55
2024/01/14 00:30:57;;;;;;;37.80;23.37;;;;;;;;;;5053916;28;20033;-51
2024/01/14 00:33:23;;;;;;;37.50;20.87;;;;;;;;;;5053828;28;20017;-50
2024/01/14 00:35:49;;;;;;;34.13;22.50;;;;;;;;;;5053708;28;20051;-56
2024/01/14 00:38:15;;;;;;;40.77;23.17;;;;;;;;;;5054270;28;20120;-57
2024/01/14 00:40:41;;;;;;;30.50;23.63;;;;;;;;;;5053942;28;20083;-57
2024/01/14 00:43:07;;;;;;;38.13;21.17;;;;;;;;;;5053407;28;20486;-55
2024/01/14 00:45:33;;;;;;;36.83;24.03;;;;;;;;;;5054248;28;20024;-57
2024/01/14 00:47:59;;;;;;;37.87;21.90;;;;;;;;;;5053878;28;20025;-57
2024/01/14 00:50:25;;;;;;;30.93;22.23;;;;;;;;;;5053761;28;20029;-55
2024/01/14 00:52:51;;;;;;;27.53;18.00;;;;;;;;;;5053632;28;20082;-55
2024/01/14 00:55:17;;;;;;;29.87;21.67;;;;;;;;;;5053099;28;20028;-56
2024/01/14 00:57:43;;;;;;;44.07;23.87;;;;;;;;;;5054089;28;20059;-56
2024/01/14 01:00:09;;;;;;;31.90;22.70;;;;;;;;;;5054235;28;20091;-52
2024/01/14 01:02:35;;;;;;;30.03;21.47;;;;;;;;;;5053491;28;20025;-56
2024/01/14 01:05:02;;;;;;;35.50;23.00;;;;;;;;;;5054056;28;20437;-56
2024/01/14 01:07:28;;;;;;;38.43;22.53;;;;;;;;;;5053917;28;20451;-57
2024/01/14 01:09:54;;;;;;;41.73;23.47;;;;;;;;;;5053473;28;20112;-53
2024/01/14 01:12:20;;;;;;;31.37;22.73;;;;;;;;;;5053887;28;20112;-56
2024/01/14 01:14:47;;;;;;;36.93;22.17;;;;;;;;;;5053172;28;20021;-56
2024/01/14 01:17:13;;;;;;;36.87;24.33;;;;;;;;;;5053875;28;20029;-55
2024/01/14 01:19:39;;;;;;;36.43;22.00;;;;;;;;;;5053303;28;20071;-56
2024/01/14 01:22:05;;;;;;;36.20;24.43;;;;;;;;;;5054132;28;20359;-57
2024/01/14 01:24:31;;;;;;;32.93;23.03;;;;;;;;;;5053032;28;20029;-56
2024/01/14 01:26:57;;;;;;;48.37;27.13;;;;;;;;;;5053854;28;20025;-55
2024/01/14 01:29:23;;;;;;;31.83;21.87;;;;;;;;;;5053537;28;20029;-52
2024/01/14 01:31:49;;;;;;;38.37;24.30;;;;;;;;;;5053187;28;20021;-57
2024/01/14 01:34:15;;;;;;;38.10;22.93;;;;;;;;;;5053256;28;20061;-57
2024/01/14 01:36:41;;;;;;;33.57;21.43;;;;;;;;;;5053260;28;20033;-53
2024/01/14 01:39:07;;;;;;;34.33;20.67;;;;;;;;;;5053382;28;20032;-55
2024/01/14 01:41:33;;;;;;;35.03;22.87;;;;;;;;;;5053117;28;20060;-56
2024/01/14 01:43:58;;;;;;;36.03;23.53;;;;;;;;;;5052808;28;20060;-55
2024/01/14 01:46:25;;;;;;;35.33;23.10;;;;;;;;;;5053616;28;20064;-55
2024/01/14 01:48:51;;;;;;;38.07;22.47;;;;;;;;;;5053659;28;20370;-55
2024/01/14 01:51:17;;;;;;;35.13;22.27;;;;;;;;;;5053516;28;20087;-55
2024/01/14 01:53:43;;;;;;;39.67;24.57;;;;;;;;;;5053027;28;20375;-56
2024/01/14 01:56:09;;;;;;;36.87;23.93;;;;;;;;;;5053771;28;20114;-54
2024/01/14 01:58:36;;;;;;;34.20;20.63;;;;;;;;;;5053300;28;20048;-56
2024/01/14 02:01:05;;;;;;;34.97;22.27;;;;;;;;;;5053452;28;20123;-57
2024/01/14 02:03:31;;;;;;;36.63;22.10;;;;;;;;;;5055004;28;20467;-57
2024/01/14 02:05:58;;;;;;;42.20;25.60;;;;;;;;;;5056594;28;20021;-56
2024/01/14 02:08:24;;;;;;;32.47;22.77;;;;;;;;;;5055195;28;20021;-55
2024/01/14 02:10:50;;;;;;;32.33;20.63;;;;;;;;;;5055227;28;20032;-57
2024/01/14 02:13:16;;;;;;;34.50;22.97;;;;;;;;;;5056342;28;20379;-57
2024/01/14 02:15:42;;;;;;;39.67;22.67;;;;;;;;;;5057088;28;20032;-56
2024/01/14 02:18:08;;;;;;;38.07;25.50;;;;;;;;;;5056916;28;20021;-56
2024/01/14 02:20:33;;;;;;;48.43;25.33;;;;;;;;;;5056249;28;20037;-56
2024/01/14 02:23:00;;;;;;;42.57;21.83;;;;;;;;;;5056121;28;20112;-56
2024/01/14 02:25:26;;;;;;;44.37;25.43;;;;;;;;;;5056987;28;20485;-57
2024/01/14 02:27:52;;;;;;;34.27;23.23;;;;;;;;;;5056709;28;20025;-55
2024/01/14 02:30:19;;;;;;;35.80;22.07;;;;;;;;;;5056125;28;20549;-55
2024/01/14 02:32:45;;;;;;;30.77;21.73;;;;;;;;;;5056070;28;20115;-55
2024/01/14 02:35:10;;;;;;;36.73;22.63;;;;;;;;;;5056214;28;20072;-56
2024/01/14 02:37:43;;;;;;;31.20;24.47;;;;;;;;;;5056524;28;20029;-57
2024/01/14 02:40:09;;;;;;;29.70;21.50;;;;;;;;;;5056285;28;20084;-56
2024/01/14 02:42:35;;;;;;;33.80;23.03;;;;;;;;;;5055607;28;20063;-56
2024/01/14 02:45:01;;;;;;;42.83;26.60;;;;;;;;;;5056049;28;20025;-56
2024/01/14 02:47:28;;;;;;;28.50;20.10;;;;;;;;;;5055988;28;20029;-57
2024/01/14 02:49:54;;;;;;;34.67;21.40;;;;;;;;;;5055409;28;20033;-55
2024/01/14 02:52:20;;;;;;;31.03;24.90;;;;;;;;;;5055636;28;20070;-56
2024/01/14 02:54:46;;;;;;;41.07;25.03;;;;;;;;;;5056108;28;20035;-57
2024/01/14 02:57:11;;;;;;;34.30;24.50;;;;;;;;;;5056413;28;20052;-54
2024/01/14 02:59:37;;;;;;;32.87;22.13;;;;;;;;;;5055968;28;20021;-55
2024/01/14 03:02:03;;;;;;;38.77;22.67;;;;;;;;;;5055448;28;20449;-57
2024/01/14 03:04:29;;;;;;;35.70;22.43;;;;;;;;;;5055551;28;20064;-57
2024/01/14 03:06:55;;;;;;;37.97;22.80;;;;;;;;;;5055523;28;20024;-56
2024/01/14 03:09:22;;;;;;;40.50;22.47;;;;;;;;;;5055960;28;20520;-56
2024/01/14 03:11:48;;;;;;;36.00;21.63;;;;;;;;;;5055806;28;20021;-56
2024/01/14 03:14:14;;;;;;;40.03;26.93;;;;;;;;;;5054124;28;20371;-55
2024/01/14 03:16:40;;;;;;;38.57;25.53;;;;;;;;;;5055178;28;20067;-56
2024/01/14 03:19:06;;;;;;;36.77;21.37;;;;;;;;;;5055857;28;20033;-56
2024/01/14 03:21:32;;;;;;;37.27;21.37;;;;;;;;;;5055184;28;20405;-56
2024/01/14 03:23:58;;;;;;;35.87;23.30;;;;;;;;;;5055066;28;20108;-56
2024/01/14 03:26:24;;;;;;;25.80;19.70;;;;;;;;;;5055533;28;20029;-54
2024/01/14 03:28:50;;;;;;;42.07;24.27;;;;;;;;;;5055227;28;20427;-55
2024/01/14 03:31:16;;;;;;;32.40;21.07;;;;;;;;;;5055126;28;20349;-53
2024/01/14 03:33:42;;;;;;;31.67;19.03;;;;;;;;;;5055346;28;20029;-56
2024/01/14 03:36:08;;;;;;;45.03;25.80;;;;;;;;;;5054841;28;20025;-56
2024/01/14 03:38:34;;;;;;;41.23;25.53;;;;;;;;;;5054799;28;20033;-54
2024/01/14 03:41:00;;;;;;;34.63;21.27;;;;;;;;;;5054669;28;20029;-57
2024/01/14 03:43:26;;;;;;;38.87;21.27;;;;;;;;;;5054674;28;20387;-57
2024/01/14 03:45:52;;;;;;;40.13;21.93;;;;;;;;;;5055128;28;20060;-54
2024/01/14 03:48:18;;;;;;;37.07;24.03;;;;;;;;;;5054612;28;20032;-54
2024/01/14 03:50:44;;;;;;;32.47;21.60;;;;;;;;;;5054536;28;20021;-55
2024/01/14 03:53:10;;;;;;;37.07;23.77;;;;;;;;;;5054482;28;20025;-54
2024/01/14 03:55:36;;;;;;;38.37;21.10;;;;;;;;;;5054226;28;20055;-56
2024/01/14 03:58:02;;;;;;;31.23;23.70;;;;;;;;;;5054362;28;20017;-57
2024/01/14 04:00:28;;;;;;;36.37;23.40;;;;;;;;;;5054553;28;20367;-54
2024/01/14 04:02:54;;;;;;;40.50;23.07;;;;;;;;;;5054216;28;20402;-51
2024/01/14 04:05:19;;;;;;;37.30;22.57;;;;;;;;;;5054805;28;20462;-56
2024/01/14 04:07:49;;;;;;;27.80;21.47;;;;;;;;;;5054987;28;20390;-53
2024/01/14 04:10:15;;;;;;;31.70;18.57;;;;;;;;;;5054162;28;20091;-56
2024/01/14 04:12:41;;;;;;;32.67;22.13;;;;;;;;;;5054324;28;20037;-56
2024/01/14 04:15:07;;;;;;;30.37;21.43;;;;;;;;;;5053778;28;20426;-56
2024/01/14 04:17:33;;;;;;;33.10;21.73;;;;;;;;;;5054404;28;20024;-53
2024/01/14 04:20:00;;;;;;;35.70;20.70;;;;;;;;;;5054302;28;20037;-53
2024/01/14 04:22:26;;;;;;;33.73;21.37;;;;;;;;;;5053974;28;20490;-51
2024/01/14 04:24:52;;;;;;;33.67;20.73;;;;;;;;;;5054190;28;20091;-55
2024/01/14 04:27:18;;;;;;;28.70;20.63;;;;;;;;;;5054261;28;20100;-56
2024/01/14 04:29:44;;;;;;;29.97;20.17;;;;;;;;;;5053930;28;20036;-53
2024/01/14 04:32:10;;;;;;;30.03;21.03;;;;;;;;;;5053818;28;20100;-51
2024/01/14 04:34:37;;;;;;;30.77;20.43;;;;;;;;;;5053791;28;20067;-52
2024/01/14 04:37:03;;;;;;;39.73;22.57;;;;;;;;;;5053900;28;20033;-52
2024/01/14 04:39:29;;;;;;;34.57;20.87;;;;;;;;;;5053970;28;20040;-52
2024/01/14 04:41:55;;;;;;;43.27;24.27;;;;;;;;;;5053720;28;20021;-55
2024/01/14 04:44:21;;;;;;;43.63;25.80;;;;;;;;;;5053953;28;20021;-52
2024/01/14 04:46:47;;;;;;;29.33;19.53;;;;;;;;;;5054135;28;20413;-52
2024/01/14 04:49:13;;;;;;;34.83;24.20;;;;;;;;;;5054002;28;20056;-49
2024/01/14 04:51:39;;;;;;;40.67;25.53;;;;;;;;;;5053790;28;20032;-50
2024/01/14 04:54:05;;;;;;;29.87;19.17;;;;;;;;;;5053571;28;20025;-52
2024/01/14 04:56:31;;;;;;;40.67;26.67;;;;;;;;;;5053824;28;20371;-51
2024/01/14 04:58:57;;;;;;;41.07;22.80;;;;;;;;;;5053663;28;20040;-50
2024/01/14 05:01:23;;;;;;;36.40;22.10;;;;;;;;;;5053916;28;20363;-53
2024/01/14 05:03:48;;;;;;;41.27;22.00;;;;;;;;;;5053619;28;20025;-53
2024/01/14 05:06:14;;;;;;;30.37;19.67;;;;;;;;;;5053844;28;20036;-56
2024/01/14 05:08:43;;;;;;;38.63;21.73;;;;;;;;;;5053933;28;20032;-57
2024/01/14 05:11:10;;;;;;;37.63;21.50;;;;;;;;;;5053800;28;20021;-57
2024/01/14 05:13:36;;;;;;;35.87;20.53;;;;;;;;;;5053486;28;20104;-55
2024/01/14 05:16:02;;;;;;;43.43;20.63;;;;;;;;;;5053103;28;20479;-53
2024/01/14 05:18:28;;;;;;;25.07;15.37;;;;;;;;;;5053970;28;20108;-52
2024/01/14 05:20:54;;;;;;;35.43;22.53;;;;;;;;;;5053333;28;20082;-56
2024/01/14 05:23:21;;;;;;;31.93;22.20;;;;;;;;;;5053343;28;20029;-53
2024/01/14 05:25:47;;;;;;;34.80;19.53;;;;;;;;;;5054080;28;20036;-50
2024/01/14 05:28:13;;;;;;;33.90;20.60;;;;;;;;;;5053921;28;20363;-56
2024/01/14 05:30:39;;;;;;;29.17;19.50;;;;;;;;;;5053229;28;20140;-56
2024/01/14 05:33:05;;;;;;;27.17;17.27;;;;;;;;;;5053193;28;20060;-56
2024/01/14 05:35:31;;;;;;;31.67;19.93;;;;;;;;;;5053180;28;20110;-54
2024/01/14 05:37:56;;;;;;;37.80;19.73;;;;;;;;;;5054763;28;20025;-55
2024/01/14 05:40:23;;;;;;;33.13;20.10;;;;;;;;;;5057107;28;20033;-56
2024/01/14 05:42:49;;;;;;;33.67;20.83;;;;;;;;;;5057425;28;20366;-55
2024/01/14 05:45:15;;;;;;;23.83;12.73;;;;;;;;;;5057166;28;20108;-54
2024/01/14 05:47:41;;;;;;;47.93;23.90;;;;;;;;;;5057686;28;20581;-56
2024/01/14 05:50:07;;;;;;;32.57;19.13;;;;;;;;;;5056797;28;20037;-54
2024/01/14 05:52:33;;;;;;;41.93;22.73;;;;;;;;;;5056793;28;20040;-54
2024/01/14 05:54:59;;;;;;;41.27;22.97;;;;;;;;;;5056514;28;20020;-53
2024/01/14 05:57:25;;;;;;;40.70;23.53;;;;;;;;;;5057074;28;20038;-54
2024/01/14 05:59:51;;;;;;;34.57;21.93;;;;;;;;;;5056802;28;20387;-56
2024/01/14 06:02:17;;;;;;;32.77;20.30;;;;;;;;;;5056919;28;20344;-56
2024/01/14 06:04:43;;;;;;;35.57;23.20;;;;;;;;;;5057426;28;20021;-54
2024/01/14 06:07:09;;;;;;;36.33;23.10;;;;;;;;;;5056481;28;20459;-56
2024/01/14 06:09:35;;;;;;;33.30;19.73;;;;;;;;;;5056585;28;20383;-56
2024/01/14 06:12:01;;;;;;;33.03;20.80;;;;;;;;;;5057269;28;20021;-55
2024/01/14 06:14:27;;;;;;;43.63;21.67;;;;;;;;;;5057009;28;20115;-54
2024/01/14 06:16:53;;;;;;;32.10;20.57;;;;;;;;;;5056668;28;20025;-55
2024/01/14 06:19:19;;;;;;;35.10;23.60;;;;;;;;;;5056574;28;20037;-53
2024/01/14 06:21:45;;;;;;;29.13;18.57;;;;;;;;;;5056367;28;20051;-56
2024/01/14 06:24:13;;;;;;;44.93;23.17;;;;;;;;;;5055874;28;20021;-56
2024/01/14 06:26:39;;;;;;;33.47;21.13;;;;;;;;;;5056742;28;20435;-55
2024/01/14 06:29:05;;;;;;;32.30;21.83;;;;;;;;;;5056666;28;20079;-52
2024/01/14 06:31:31;;;;;;;32.63;20.73;;;;;;;;;;5056436;28;20092;-59
2024/01/14 06:33:57;;;;;;;32.53;20.13;;;;;;;;;;5056063;28;20059;-56
2024/01/14 06:36:23;;;;;;;44.70;23.77;;;;;;;;;;5056066;28;20451;-56
2024/01/14 06:38:49;;;;;;;33.53;17.30;;;;;;;;;;5056315;28;20032;-56
2024/01/14 06:41:23;;;;;;;33.10;21.70;;;;;;;;;;5056262;28;20033;-51
2024/01/14 06:43:49;;;;;;;33.07;19.63;;;;;;;;;;5056356;28;20413;-53
2024/01/14 06:46:16;;;;;;;35.80;22.73;;;;;;;;;;5055830;28;20025;-54
2024/01/14 06:48:42;;;;;;;40.80;22.23;;;;;;;;;;5055827;28;20064;-55
2024/01/14 06:51:08;;;;;;;33.03;20.97;;;;;;;;;;5055804;28;20436;-55
2024/01/14 06:53:34;;;;;;;37.00;23.00;;;;;;;;;;5055757;28;20110;-54
2024/01/14 06:56:01;;;;;;;39.17;20.37;;;;;;;;;;5055720;28;20478;-55
2024/01/14 06:58:26;;;;;;;32.27;20.73;;;;;;;;;;5056129;28;20028;-53
2024/01/14 07:00:52;;;;;;;33.30;19.83;;;;;;;;;;5055994;28;20037;-54
2024/01/14 07:03:18;;;;;;;38.87;18.97;;;;;;;;;;5055505;28;20048;-55
2024/01/14 07:05:44;;;;;;;38.27;21.97;;;;;;;;;;5056007;28;20345;-56
2024/01/14 07:08:10;;;;;;;42.87;21.23;;;;;;;;;;5055671;28;20100;-54
2024/01/14 07:10:36;;;;;;;41.47;23.37;;;;;;;;;;5055324;28;20037;-56
2024/01/14 07:13:03;;;;;;;34.33;20.20;;;;;;;;;;5055034;28;20463;-54
2024/01/14 07:15:29;;;;;;;29.30;20.80;;;;;;;;;;5055616;28;20116;-55
2024/01/14 07:17:55;;;;;;;38.20;21.53;;;;;;;;;;5055850;28;20485;-57
2024/01/14 07:20:21;;;;;;;34.80;20.90;;;;;;;;;;5055841;28;20367;-55
2024/01/14 07:22:47;;;;;;;41.27;21.40;;;;;;;;;;5055063;28;20025;-57
2024/01/14 07:25:13;;;;;;;34.23;19.73;;;;;;;;;;5055559;28;20052;-56
2024/01/14 07:27:39;;;;;;;38.60;22.77;;;;;;;;;;5055475;28;20039;-52
2024/01/14 07:30:05;;;;;;;33.10;21.40;;;;;;;;;;5054996;28;20390;-53
2024/01/14 07:32:31;;;;;;;40.33;22.90;;;;;;;;;;5055185;28;20021;-56
2024/01/14 07:34:57;;;;;;;33.23;20.33;;;;;;;;;;5055356;28;20021;-54
2024/01/14 07:37:23;;;;;;;37.90;22.70;;;;;;;;;;5055000;28;20032;-55
2024/01/14 07:39:49;;;;;;;38.03;20.83;;;;;;;;;;5055015;28;20093;-56
2024/01/14 07:42:16;;;;;;;29.40;19.27;;;;;;;;;;5055141;28;20135;-51
2024/01/14 07:44:41;;;;;;;38.50;21.70;;;;;;;;;;5054695;28;20021;-51
2024/01/14 07:47:07;;;;;;;34.77;20.87;;;;;;;;;;5055504;28;20159;-55
2024/01/14 07:49:33;;;;;;;43.40;21.50;;;;;;;;;;5055238;28;20025;-56
2024/01/14 07:51:59;;;;;;;32.47;21.10;;;;;;;;;;5055151;28;20138;-56
2024/01/14 07:54:25;;;;;;;36.93;23.50;;;;;;;;;;5054829;28;20029;-55
2024/01/14 07:56:52;;;;;;;33.50;21.30;;;;;;;;;;5054045;28;20045;-52
2024/01/14 07:59:20;;;;;;;37.37;22.90;;;;;;;;;;5054214;28;20033;-55
2024/01/14 08:01:46;;;;;;;32.77;20.40;;;;;;;;;;5054320;28;20055;-53
2024/01/14 08:04:12;;;;;;;41.20;20.30;;;;;;;;;;5054732;28;20029;-53
2024/01/14 08:06:38;;;;;;;34.33;20.90;;;;;;;;;;5054257;28;20115;-55
2024/01/14 08:09:06;;;;;;;42.00;22.97;;;;;;;;;;5054478;28;20417;-57
2024/01/14 08:11:32;;;;;;;35.73;23.80;;;;;;;;;;5054781;28;20021;-53
2024/01/14 08:13:58;;;;;;;44.17;27.13;;;;;;;;;;5053782;28;20490;-55
2024/01/14 08:16:24;;;;;;;37.67;23.20;;;;;;;;;;5054113;28;20458;-53
2024/01/14 08:18:50;;;;;;;36.20;23.70;;;;;;;;;;5054678;28;20025;-57
2024/01/14 08:21:16;;;;;;;41.67;26.13;;;;;;;;;;5053957;28;20119;-57
2024/01/14 08:23:43;;;;;;;39.83;25.93;;;;;;;;;;5054511;28;20056;-52
2024/01/14 08:26:09;;;;;;;34.90;24.20;;;;;;;;;;5053939;28;20064;-55
2024/01/14 08:28:36;;;;;;;34.37;23.80;;;;;;;;;;5054581;28;20029;-53
2024/01/14 08:31:02;;;;;;;37.30;21.97;;;;;;;;;;5054207;28;20056;-55
2024/01/14 08:33:29;;;;;;;35.77;20.60;;;;;;;;;;5053791;28;20478;-55
2024/01/14 08:35:55;;;;;;;37.17;24.63;;;;;;;;;;5053806;28;20029;-54
2024/01/14 08:38:21;;;;;;;44.10;25.20;;;;;;;;;;5054628;28;20025;-52
2024/01/14 08:40:48;;;;;;;35.33;23.57;;;;;;;;;;5053460;28;20033;-57
2024/01/14 08:43:14;;;;;;;28.87;20.73;;;;;;;;;;5053457;28;20483;-55
2024/01/14 08:45:40;;;;;;;35.90;21.57;;;;;;;;;;5053758;28;20028;-56
2024/01/14 08:48:06;;;;;;;34.63;23.37;;;;;;;;;;5054438;28;20033;-52
2024/01/14 08:50:32;;;;;;;28.50;21.93;;;;;;;;;;5053888;28;20125;-54
2024/01/14 08:52:58;;;;;;;29.97;21.93;;;;;;;;;;5054379;28;20025;-57
2024/01/14 08:55:24;;;;;;;35.20;22.67;;;;;;;;;;5054081;28;20021;-55
2024/01/14 08:57:50;;;;;;;38.53;23.53;;;;;;;;;;5054438;28;20032;-53
2024/01/14 09:00:16;;;;;;;35.83;22.57;;;;;;;;;;5053333;28;20037;-52
2024/01/14 09:02:51;;;;;;;30.00;20.83;;;;;;;;;;5053312;28;20029;-54
2024/01/14 09:05:17;;;;;;;35.07;23.17;;;;;;;;;;5052759;28;20025;-52
2024/01/14 09:07:43;;;;;;;35.17;22.30;;;;;;;;;;5053728;28;20032;-51
2024/01/14 09:10:09;;;;;;;36.17;22.70;;;;;;;;;;5053249;28;20029;-55
2024/01/14 09:12:35;;;;;;;33.03;23.60;;;;;;;;;;5056090;28;20051;-51
2024/01/14 09:15:01;;;;;;;31.03;21.93;;;;;;;;;;5057320;28;20040;-53
2024/01/14 09:17:26;;;;;;;39.50;22.47;;;;;;;;;;5057320;28;20060;-50
2024/01/14 09:19:53;;;;;;;40.93;24.17;;;;;;;;;;5057122;28;20032;-49
2024/01/14 09:22:19;;;;;;;34.93;23.27;;;;;;;;;;5057419;28;20029;-53
2024/01/14 09:24:45;;;;;;;29.87;22.37;;;;;;;;;;5057220;28;20028;-51
2024/01/14 09:27:12;;;;;;;35.60;22.10;;;;;;;;;;5057757;28;20021;-51
2024/01/14 09:29:38;;;;;;;30.00;20.57;;;;;;;;;;5057728;28;20375;-56
2024/01/14 09:32:05;;;;;;;30.67;20.93;;;;;;;;;;5057300;28;20029;-57
2024/01/14 09:34:30;;;;;;;32.80;22.30;;;;;;;;;;5057072;28;20021;-55
2024/01/14 09:36:56;;;;;;;36.83;22.70;;;;;;;;;;5056939;28;20536;-56
2024/01/14 09:39:22;;;;;;;35.50;23.40;;;;;;;;;;5057386;28;20432;-55
2024/01/14 09:42:07;;;;;;;27.90;21.20;;;;;;;;;;5056616;28;20100;-55
2024/01/14 09:44:34;;;;;;;36.60;20.93;;;;;;;;;;5056973;28;20018;-54
2024/01/14 09:47:00;;;;;;;32.00;22.93;;;;;;;;;;5057325;28;20430;-57
2024/01/14 09:49:26;;;;;;;37.67;22.13;;;;;;;;;;5057087;28;20540;-57
2024/01/14 09:51:53;;;;;;;30.00;22.37;;;;;;;;;;5056397;28;20029;-50
2024/01/14 09:54:19;;;;;;;27.73;21.17;;;;;;;;;;5057194;28;20363;-56
2024/01/14 09:56:46;;;;;;;33.50;20.83;;;;;;;;;;5057110;28;20049;-50
2024/01/14 09:59:16;;;;;;;36.50;23.23;;;;;;;;;;5056620;28;20032;-53
2024/01/14 10:01:42;;;;;;;35.30;23.67;;;;;;;;;;5056713;28;20033;-54
2024/01/14 10:04:08;;;;;;;40.23;22.37;;;;;;;;;;5056993;28;20369;-54
2024/01/14 10:06:35;;;;;;;35.27;22.47;;;;;;;;;;5056961;28;20363;-56
2024/01/14 10:09:01;;;;;;;28.33;19.07;;;;;;;;;;5056821;28;20017;-55
2024/01/14 10:11:27;;;;;;;39.30;23.57;;;;;;;;;;5056450;28;20024;-57
2024/01/14 10:13:56;;;;;;;37.67;26.07;;;;;;;;;;5056462;28;20119;-53
2024/01/14 10:16:22;;;;;;;29.57;23.00;;;;;;;;;;5055934;28;20102;-51
2024/01/14 10:18:48;;;;;;;31.60;22.27;;;;;;;;;;5057021;28;20052;-55
2024/01/14 10:21:15;;;;;;;42.30;24.80;;;;;;;;;;5056513;28;20057;-54
2024/01/14 10:23:42;;;;;;;36.50;20.67;;;;;;;;;;5055234;28;20028;-55
2024/01/14 10:26:08;;;;;;;33.30;21.57;;;;;;;;;;5056176;28;20052;-54
2024/01/14 10:28:35;;;;;;;35.57;20.97;;;;;;;;;;5056257;28;20087;-54
2024/01/14 10:31:02;;;;;;;33.40;20.57;;;;;;;;;;5056660;28;20021;-55
2024/01/14 10:33:31;;;;;;;31.50;21.17;;;;;;;;;;5056940;28;20025;-57
2024/01/14 10:35:58;;;;;;;38.20;21.27;;;;;;;;;;5056593;28;20063;-56
2024/01/14 10:38:24;;;;;;;36.97;19.77;;;;;;;;;;5055802;28;20459;-55
2024/01/14 10:40:50;;;;;;;33.17;21.00;;;;;;;;;;5055854;28;20040;-51
2024/01/14 10:43:16;;;;;;;41.57;24.23;;;;;;;;;;5055834;28;20040;-53
2024/01/14 10:45:42;;;;;;;35.40;20.37;;;;;;;;;;5056564;28;20347;-57
2024/01/14 10:48:11;;;;;;;27.47;20.60;;;;;;;;;;5056112;28;20025;-52
2024/01/14 10:50:37;;;;;;;35.90;20.17;;;;;;;;;;5056192;28;20416;-53
2024/01/14 10:53:04;;;;;;;38.07;22.03;;;;;;;;;;5055298;28;20108;-54
2024/01/14 10:55:34;;;;;;;26.70;19.97;;;;;;;;;;5055390;28;20379;-53
2024/01/14 10:58:03;;;;;;;35.30;21.42;;;;;;;;;;5056010;28;20032;-52
2024/01/14 11:00:31;;;;;;;33.47;20.40;;;;;;;;;;5054970;28;20033;-54
2024/01/14 11:02:58;;;;;;;32.60;20.40;;;;;;;;;;5056183;28;20440;-53
2024/01/14 11:05:24;;;;;;;32.60;18.90;;;;;;;;;;5056000;28;20025;-54
2024/01/14 11:07:50;;;;;;;35.63;22.33;;;;;;;;;;5055391;28;20463;-52
2024/01/14 11:10:17;;;;;;;37.03;20.27;;;;;;;;;;5055286;28;20068;-54
2024/01/14 11:13:01;;;;;;;30.33;17.97;;;;;;;;;;5056159;28;20108;-52
2024/01/14 11:15:54;;;;;;;33.43;21.33;;;;;;;;;;5055868;28;20025;-56
2024/01/14 11:18:23;;;;;;;30.90;19.50;;;;;;;;;;5046636;28;20367;-52
2024/01/14 11:21:02;;;;;;;36.67;23.10;;;;;;;;;;5055085;28;20072;-53
2024/01/14 11:23:30;;;;;;;38.13;21.63;;;;;;;;;;5055505;28;20017;-53
2024/01/14 11:25:56;;;;;;;32.17;19.97;;;;;;;;;;5055363;28;20021;-54
2024/01/14 11:28:22;;;;;;;29.33;20.23;;;;;;;;;;5055330;28;20409;-55
2024/01/14 11:30:49;;;;;;;34.17;23.83;;;;;;;;;;5054950;28;20025;-55
2024/01/14 11:33:32;;;;;;;32.93;21.73;;;;;;;;;;5055378;28;20037;-54
2024/01/14 11:36:00;;;;;;;29.27;19.83;;;;;;;;;;5053875;28;20025;-56
2024/01/14 11:38:37;;;;;;;28.63;19.37;;;;;;;;;;5055471;28;20033;-55
2024/01/14 11:41:21;;;;;;;30.80;20.07;;;;;;;;;;5054148;28;20039;-52
2024/01/14 11:43:47;;;;;;;29.20;19.07;;;;;;;;;;5055178;28;20109;-57
2024/01/14 11:46:32;;;;;;;26.67;19.17;;;;;;;;;;5054619;28;20053;-53
2024/01/14 11:48:57;;;;;;;33.20;20.33;;;;;;;;;;5054215;28;20489;-53
2024/01/14 11:51:23;;;;;;;27.80;18.53;;;;;;;;;;5054609;28;20033;-53
2024/01/14 11:53:49;;;;;;;28.00;19.17;;;;;;;;;;5054717;28;20028;-55
2024/01/14 11:56:29;;;;;;;32.63;18.40;;;;;;;;;;5071660;28;20449;-54
2024/01/14 11:58:59;;;;;;;29.50;19.73;;;;;;;;;;5072047;28;20090;-56
2024/01/14 12:01:27;;;;;;;32.57;18.03;;;;;;;;;;5071035;28;20086;-57
2024/01/14 12:04:02;;;;;;;30.87;19.07;;;;;;;;;;5071006;28;20413;-56
2024/01/14 12:06:29;;;;;;;27.23;17.63;;;;;;;;;;5071318;28;20032;-56
2024/01/14 12:09:01;;;;;;;31.90;18.77;;;;;;;;;;5070964;28;20032;-58
2024/01/14 12:11:27;;;;;;;29.13;19.17;;;;;;;;;;5070932;28;20116;-56
2024/01/14 12:13:54;;;;;;;29.67;19.60;;;;;;;;;;5070771;28;20029;-58
2024/01/14 12:16:20;;;;;;;28.37;18.87;;;;;;;;;;5071175;28;20028;-51
2024/01/14 12:18:46;;;;;;;35.00;19.70;;;;;;;;;;5070972;28;20039;-56
2024/01/14 12:21:12;;;;;;;30.67;18.77;;;;;;;;;;5070555;28;20025;-56
2024/01/14 12:23:38;;;;;;;31.97;20.27;;;;;;;;;;5071128;28;20347;-55
2024/01/14 12:26:05;;;;;;;27.73;17.77;;;;;;;;;;5070806;28;20040;-57
2024/01/14 12:28:31;;;;;;;25.37;17.90;;;;;;;;;;5070378;28;20028;-56
2024/01/14 12:30:57;;;;;;;33.50;18.50;;;;;;;;;;5071029;28;20115;-57
2024/01/14 12:33:23;;;;;;;26.00;17.07;;;;;;;;;;5070779;28;20025;-54
2024/01/14 12:35:49;;;;;;;28.53;16.60;;;;;;;;;;5069896;28;20036;-57
2024/01/14 12:38:15;;;;;;;27.87;18.60;;;;;;;;;;5070873;28;20116;-55
2024/01/14 12:40:42;;;;;;;26.93;16.80;;;;;;;;;;5070263;28;20067;-54
2024/01/14 12:43:08;;;;;;;25.87;17.43;;;;;;;;;;5069835;28;20459;-57
2024/01/14 12:45:34;;;;;;;27.60;16.57;;;;;;;;;;5070061;28;20028;-57
2024/01/14 12:48:01;;;;;;;34.53;17.03;;;;;;;;;;5070846;28;20052;-54
2024/01/14 12:50:27;;;;;;;27.63;18.20;;;;;;;;;;5070448;28;20021;-56
2024/01/14 12:53:00;;;;;;;24.70;19.23;;;;;;;;;;5070651;28;20028;-57
2024/01/14 12:55:30;;;;;;;25.33;16.03;;;;;;;;;;5069816;28;20049;-56
2024/01/14 12:58:00;;;;;;;27.58;15.52;;;;;;;;;;5070765;28;20490;-57
2024/01/14 13:00:26;;;;;;;27.00;18.00;;;;;;;;;;5070389;28;20429;-56
2024/01/14 13:02:52;;;;;;;33.10;17.77;;;;;;;;;;5069381;28;20078;-56
2024/01/14 13:05:18;;;;;;;21.93;14.43;;;;;;;;;;5069736;28;20064;-58
2024/01/14 13:07:44;;;;;;;32.40;16.30;;;;;;;;;;5056944;28;20029;-57
2024/01/14 13:10:10;;;;;;;27.73;15.70;;;;;;;;;;5056477;28;20463;-57
2024/01/14 13:12:36;;;;;;;33.93;16.90;;;;;;;;;;5056355;28;20064;-56
2024/01/14 13:15:03;;;;;;;23.03;15.67;;;;;;;;;;5056200;28;20032;-55
2024/01/14 13:17:30;;;;;;;21.23;15.40;;;;;;;;;;5057171;28;20025;-57
2024/01/14 13:19:55;;;;;;;26.33;16.63;;;;;;;;;;5056819;28;20047;-57
2024/01/14 13:22:22;;;;;;;22.50;15.50;;;;;;;;;;5056054;28;20455;-58
2024/01/14 13:24:48;;;;;;;27.23;17.07;;;;;;;;;;5055860;28;20059;-56
2024/01/14 13:27:14;;;;;;;24.60;14.73;;;;;;;;;;5056522;28;20043;-58
2024/01/14 13:29:40;;;;;;;33.60;20.50;;;;;;;;;;5056642;28;20495;-57
2024/01/14 13:32:06;;;;;;;23.27;14.73;;;;;;;;;;5056499;28;20025;-56
2024/01/14 13:34:32;;;;;;;27.50;16.10;;;;;;;;;;5056052;28;20374;-50
2024/01/14 13:36:58;;;;;;;25.73;14.30;;;;;;;;;;5055999;28;20032;-54
2024/01/14 13:39:24;;;;;;;24.07;16.07;;;;;;;;;;5056409;28;20059;-54
2024/01/14 13:41:50;;;;;;;30.60;15.57;;;;;;;;;;5055486;28;20060;-54
2024/01/14 13:44:16;;;;;;;26.00;15.97;;;;;;;;;;5055412;28;20075;-58
2024/01/14 13:46:42;;;;;;;26.97;16.43;;;;;;;;;;5055730;28;20095;-56
2024/01/14 13:49:08;;;;;;;23.23;15.43;;;;;;;;;;5056211;28;20029;-58
2024/01/14 13:51:34;;;;;;;26.67;16.10;;;;;;;;;;5055773;28;20048;-58
2024/01/14 13:54:00;;;;;;;30.07;17.23;;;;;;;;;;5056112;28;20032;-57
2024/01/14 13:56:26;;;;;;;28.20;15.47;;;;;;;;;;5055994;28;20025;-56
2024/01/14 13:58:52;;;;;;;23.27;13.20;;;;;;;;;;5055890;28;20021;-58
2024/01/14 14:01:18;;;;;;;27.40;15.63;;;;;;;;;;5056052;28;20048;-57
2024/01/14 14:03:44;;;;;;;26.20;16.50;;;;;;;;;;5055392;28;20029;-56
2024/01/14 14:06:10;;;;;;;21.00;15.37;;;;;;;;;;5056209;28;20083;-57
2024/01/14 14:08:36;;;;;;;24.87;16.13;;;;;;;;;;5055574;28;20116;-57
2024/01/14 14:11:02;;;;;;;25.10;15.47;;;;;;;;;;5055591;28;20420;-58
2024/01/14 14:13:28;;;;;;;22.30;14.77;;;;;;;;;;5054975;28;20455;-57